sensor_id;sensor_type;location;lat;lon;timestamp;P1;durP1;ratioP1;P2;durP2;ratioP2
22378;SDS011;11357;49.990;7.370;2022-11-24T00:02:25;569.37;;;521.50;;
22378;SDS011;11357;49.990;7.370;2022-11-24T00:04:52;723.33;;;652.07;;
22378;SDS011;11357;49.990;7.370;2022-11-24T00:07:17;667.37;;;603.87;;
22378;SDS011;11357;49.990;7.370;2022-11-24T00:09:43;638.83;;;579.87;;
22378;SDS011;11357;49.990;7.370;2022-11-24T00:12:09;593.40;;;542.17;;
22378;SDS011;11357;49.990;7.370;2022-11-24T00:14:34;577.50;;;527.90;;
22378;SDS011;11357;49.990;7.370;2022-11-24T00:17:00;657.10;;;595.83;;
22378;SDS011;11357;49.990;7.370;2022-11-24T00:19:25;601.67;;;544.67;;
22378;SDS011;11357;49.990;7.370;2022-11-24T00:21:51;624.83;;;567.73;;
22378;SDS011;11357;49.990;7.370;2022-11-24T00:24:17;619.63;;;567.03;;
22378;SDS011;11357;49.990;7.370;2022-11-24T00:26:42;686.97;;;625.13;;
22378;SDS011;11357;49.990;7.370;2022-11-24T00:29:08;642.70;;;585.47;;
22378;SDS011;11357;49.990;7.370;2022-11-24T00:31:36;635.13;;;577.07;;
22378;SDS011;11357;49.990;7.370;2022-11-24T00:34:06;642.27;;;581.60;;
22378;SDS011;11357;49.990;7.370;2022-11-24T00:36:36;581.17;;;532.43;;
22378;SDS011;11357;49.990;7.370;2022-11-24T00:39:06;587.43;;;535.40;;
22378;SDS011;11357;49.990;7.370;2022-11-24T00:41:35;669.57;;;609.83;;
22378;SDS011;11357;49.990;7.370;2022-11-24T00:44:01;612.23;;;557.77;;
22378;SDS011;11357;49.990;7.370;2022-11-24T00:46:27;667.37;;;606.60;;
22378;SDS011;11357;49.990;7.370;2022-11-24T00:48:53;618.13;;;563.43;;
22378;SDS011;11357;49.990;7.370;2022-11-24T00:51:20;520.00;;;476.50;;
22378;SDS011;11357;49.990;7.370;2022-11-24T00:53:48;607.07;;;554.97;;
22378;SDS011;11357;49.990;7.370;2022-11-24T00:56:13;602.93;;;552.07;;
22378;SDS011;11357;49.990;7.370;2022-11-24T00:58:39;677.80;;;616.57;;
22378;SDS011;11357;49.990;7.370;2022-11-24T01:03:32;717.53;;;650.23;;
22378;SDS011;11357;49.990;7.370;2022-11-24T01:06:05;679.80;;;618.77;;
22378;SDS011;11357;49.990;7.370;2022-11-24T01:08:34;713.93;;;648.03;;
22378;SDS011;11357;49.990;7.370;2022-11-24T01:13:40;671.90;;;611.77;;
22378;SDS011;11357;49.990;7.370;2022-11-24T01:16:21;680.87;;;618.60;;
22378;SDS011;11357;49.990;7.370;2022-11-24T01:18:52;660.03;;;603.43;;
22378;SDS011;11357;49.990;7.370;2022-11-24T01:21:18;664.83;;;604.97;;
22378;SDS011;11357;49.990;7.370;2022-11-24T01:23:44;672.53;;;611.50;;
22378;SDS011;11357;49.990;7.370;2022-11-24T01:26:11;715.47;;;651.00;;
22378;SDS011;11357;49.990;7.370;2022-11-24T01:28:38;743.57;;;671.00;;
22378;SDS011;11357;49.990;7.370;2022-11-24T01:31:05;724.33;;;656.27;;
22378;SDS011;11357;49.990;7.370;2022-11-24T01:33:32;737.23;;;666.37;;
22378;SDS011;11357;49.990;7.370;2022-11-24T01:35:58;727.27;;;658.77;;
22378;SDS011;11357;49.990;7.370;2022-11-24T01:38:25;747.90;;;681.17;;
22378;SDS011;11357;49.990;7.370;2022-11-24T01:43:50;509.87;;;464.67;;
22378;SDS011;11357;49.990;7.370;2022-11-24T01:49:02;638.50;;;578.17;;
22378;SDS011;11357;49.990;7.370;2022-11-24T01:51:33;542.90;;;498.60;;
22378;SDS011;11357;49.990;7.370;2022-11-24T01:54:04;595.87;;;546.70;;
22378;SDS011;11357;49.990;7.370;2022-11-24T01:56:37;625.43;;;570.43;;
22378;SDS011;11357;49.990;7.370;2022-11-24T01:59:06;546.47;;;499.17;;
22378;SDS011;11357;49.990;7.370;2022-11-24T02:01:36;631.60;;;578.97;;
22378;SDS011;11357;49.990;7.370;2022-11-24T02:04:03;557.50;;;506.27;;
22378;SDS011;11357;49.990;7.370;2022-11-24T02:06:34;617.43;;;560.37;;
22378;SDS011;11357;49.990;7.370;2022-11-24T02:09:06;582.13;;;531.17;;
22378;SDS011;11357;49.990;7.370;2022-11-24T02:11:42;615.13;;;558.60;;
22378;SDS011;11357;49.990;7.370;2022-11-24T02:14:10;642.23;;;582.90;;
22378;SDS011;11357;49.990;7.370;2022-11-24T02:16:39;587.20;;;536.77;;
22378;SDS011;11357;49.990;7.370;2022-11-24T02:19:13;632.60;;;574.03;;
22378;SDS011;11357;49.990;7.370;2022-11-24T02:21:51;539.37;;;493.97;;
22378;SDS011;11357;49.990;7.370;2022-11-24T02:26:51;678.67;;;615.63;;
22378;SDS011;11357;49.990;7.370;2022-11-24T02:29:17;705.13;;;640.07;;
22378;SDS011;11357;49.990;7.370;2022-11-24T02:31:46;663.23;;;602.73;;
22378;SDS011;11357;49.990;7.370;2022-11-24T02:34:15;701.23;;;633.80;;
22378;SDS011;11357;49.990;7.370;2022-11-24T02:36:41;759.17;;;688.77;;
22378;SDS011;11357;49.990;7.370;2022-11-24T02:39:10;697.27;;;635.47;;
22378;SDS011;11357;49.990;7.370;2022-11-24T02:41:37;635.97;;;575.77;;
22378;SDS011;11357;49.990;7.370;2022-11-24T02:44:06;689.80;;;625.60;;
22378;SDS011;11357;49.990;7.370;2022-11-24T02:46:31;744.13;;;668.93;;
22378;SDS011;11357;49.990;7.370;2022-11-24T02:48:57;735.83;;;663.43;;
22378;SDS011;11357;49.990;7.370;2022-11-24T02:51:23;720.93;;;650.20;;
22378;SDS011;11357;49.990;7.370;2022-11-24T02:53:48;746.40;;;657.03;;
22378;SDS011;11357;49.990;7.370;2022-11-24T02:56:14;673.07;;;603.77;;
22378;SDS011;11357;49.990;7.370;2022-11-24T02:58:39;511.60;;;466.83;;
22378;SDS011;11357;49.990;7.370;2022-11-24T03:01:05;682.73;;;623.17;;
22378;SDS011;11357;49.990;7.370;2022-11-24T03:03:31;680.40;;;615.30;;
22378;SDS011;11357;49.990;7.370;2022-11-24T03:05:56;343.70;;;313.57;;
22378;SDS011;11357;49.990;7.370;2022-11-24T03:08:22;676.80;;;615.30;;
22378;SDS011;11357;49.990;7.370;2022-11-24T03:10:48;706.87;;;641.17;;
22378;SDS011;11357;49.990;7.370;2022-11-24T03:13:14;569.50;;;516.27;;
22378;SDS011;11357;49.990;7.370;2022-11-24T03:15:39;497.70;;;453.50;;
22378;SDS011;11357;49.990;7.370;2022-11-24T03:18:05;238.97;;;218.77;;
22378;SDS011;11357;49.990;7.370;2022-11-24T03:20:31;503.43;;;455.80;;
22378;SDS011;11357;49.990;7.370;2022-11-24T03:22:57;477.50;;;431.73;;
22378;SDS011;11357;49.990;7.370;2022-11-24T03:25:22;490.77;;;447.53;;
22378;SDS011;11357;49.990;7.370;2022-11-24T03:27:48;645.23;;;589.73;;
22378;SDS011;11357;49.990;7.370;2022-11-24T03:30:14;265.20;;;245.40;;
22378;SDS011;11357;49.990;7.370;2022-11-24T03:32:40;610.83;;;547.90;;
22378;SDS011;11357;49.990;7.370;2022-11-24T03:35:06;515.07;;;464.37;;
22378;SDS011;11357;49.990;7.370;2022-11-24T03:37:31;629.57;;;572.00;;
22378;SDS011;11357;49.990;7.370;2022-11-24T03:39:57;546.17;;;500.97;;
22378;SDS011;11357;49.990;7.370;2022-11-24T03:42:23;527.33;;;483.73;;
22378;SDS011;11357;49.990;7.370;2022-11-24T03:44:48;398.13;;;365.00;;
22378;SDS011;11357;49.990;7.370;2022-11-24T03:47:14;547.97;;;500.20;;
22378;SDS011;11357;49.990;7.370;2022-11-24T03:49:39;329.30;;;301.00;;
22378;SDS011;11357;49.990;7.370;2022-11-24T03:52:05;345.40;;;318.00;;
22378;SDS011;11357;49.990;7.370;2022-11-24T03:54:32;557.13;;;509.03;;
22378;SDS011;11357;49.990;7.370;2022-11-24T03:56:57;480.80;;;443.30;;
22378;SDS011;11357;49.990;7.370;2022-11-24T03:59:23;624.60;;;568.67;;
22378;SDS011;11357;49.990;7.370;2022-11-24T04:01:48;438.57;;;400.83;;
22378;SDS011;11357;49.990;7.370;2022-11-24T04:04:14;328.60;;;303.63;;
22378;SDS011;11357;49.990;7.370;2022-11-24T04:06:40;393.93;;;363.40;;
22378;SDS011;11357;49.990;7.370;2022-11-24T04:09:05;512.13;;;467.67;;
22378;SDS011;11357;49.990;7.370;2022-11-24T04:11:31;216.03;;;167.47;;
22378;SDS011;11357;49.990;7.370;2022-11-24T04:14:15;468.77;;;429.77;;
22378;SDS011;11357;49.990;7.370;2022-11-24T04:16:42;198.70;;;183.33;;
22378;SDS011;11357;49.990;7.370;2022-11-24T04:19:08;302.83;;;277.67;;
22378;SDS011;11357;49.990;7.370;2022-11-24T04:21:33;238.20;;;220.60;;
22378;SDS011;11357;49.990;7.370;2022-11-24T04:23:59;388.60;;;359.13;;
22378;SDS011;11357;49.990;7.370;2022-11-24T04:26:25;491.80;;;450.67;;
22378;SDS011;11357;49.990;7.370;2022-11-24T04:28:50;395.27;;;362.70;;
22378;SDS011;11357;49.990;7.370;2022-11-24T04:31:16;435.70;;;398.10;;
22378;SDS011;11357;49.990;7.370;2022-11-24T04:33:42;348.90;;;319.57;;
22378;SDS011;11357;49.990;7.370;2022-11-24T04:36:08;178.13;;;163.90;;
22378;SDS011;11357;49.990;7.370;2022-11-24T04:38:34;291.90;;;268.53;;
22378;SDS011;11357;49.990;7.370;2022-11-24T04:41:02;339.17;;;312.70;;
22378;SDS011;11357;49.990;7.370;2022-11-24T04:43:29;440.37;;;404.83;;
22378;SDS011;11357;49.990;7.370;2022-11-24T04:45:55;477.27;;;439.03;;
22378;SDS011;11357;49.990;7.370;2022-11-24T04:48:23;511.70;;;471.30;;
22378;SDS011;11357;49.990;7.370;2022-11-24T04:50:49;269.10;;;248.83;;
22378;SDS011;11357;49.990;7.370;2022-11-24T04:53:14;398.60;;;368.60;;
22378;SDS011;11357;49.990;7.370;2022-11-24T04:55:40;519.87;;;477.67;;
22378;SDS011;11357;49.990;7.370;2022-11-24T04:58:07;297.37;;;273.33;;
22378;SDS011;11357;49.990;7.370;2022-11-24T05:00:36;534.53;;;489.23;;
22378;SDS011;11357;49.990;7.370;2022-11-24T05:03:02;547.70;;;501.70;;
22378;SDS011;11357;49.990;7.370;2022-11-24T05:05:28;395.73;;;364.07;;
22378;SDS011;11357;49.990;7.370;2022-11-24T05:07:54;604.07;;;551.83;;
22378;SDS011;11357;49.990;7.370;2022-11-24T05:10:20;530.80;;;486.60;;
22378;SDS011;11357;49.990;7.370;2022-11-24T05:13:10;96.90;;;88.53;;
22378;SDS011;11357;49.990;7.370;2022-11-24T05:15:39;227.80;;;209.53;;
22378;SDS011;11357;49.990;7.370;2022-11-24T05:18:06;435.63;;;401.83;;
22378;SDS011;11357;49.990;7.370;2022-11-24T05:20:33;361.77;;;332.57;;
22378;SDS011;11357;49.990;7.370;2022-11-24T05:23:00;369.43;;;341.57;;
22378;SDS011;11357;49.990;7.370;2022-11-24T05:25:28;346.80;;;320.83;;
22378;SDS011;11357;49.990;7.370;2022-11-24T05:27:54;494.23;;;456.47;;
22378;SDS011;11357;49.990;7.370;2022-11-24T05:30:22;472.90;;;435.57;;
22378;SDS011;11357;49.990;7.370;2022-11-24T05:32:48;496.50;;;454.67;;
22378;SDS011;11357;49.990;7.370;2022-11-24T05:35:13;432.83;;;396.77;;
22378;SDS011;11357;49.990;7.370;2022-11-24T05:37:39;517.97;;;476.47;;
22378;SDS011;11357;49.990;7.370;2022-11-24T05:40:05;416.20;;;379.57;;
22378;SDS011;11357;49.990;7.370;2022-11-24T05:42:31;479.47;;;440.50;;
22378;SDS011;11357;49.990;7.370;2022-11-24T05:45:07;470.07;;;433.57;;
22378;SDS011;11357;49.990;7.370;2022-11-24T05:47:34;615.67;;;558.57;;
22378;SDS011;11357;49.990;7.370;2022-11-24T05:50:00;576.63;;;527.20;;
22378;SDS011;11357;49.990;7.370;2022-11-24T05:52:25;582.43;;;534.03;;
22378;SDS011;11357;49.990;7.370;2022-11-24T05:54:51;684.37;;;617.20;;
22378;SDS011;11357;49.990;7.370;2022-11-24T05:57:17;303.10;;;280.63;;
22378;SDS011;11357;49.990;7.370;2022-11-24T05:59:43;409.30;;;378.57;;
22378;SDS011;11357;49.990;7.370;2022-11-24T06:02:09;546.47;;;502.57;;
22378;SDS011;11357;49.990;7.370;2022-11-24T06:04:35;473.93;;;437.07;;
22378;SDS011;11357;49.990;7.370;2022-11-24T06:07:01;626.67;;;569.70;;
22378;SDS011;11357;49.990;7.370;2022-11-24T06:09:28;301.20;;;272.23;;
22378;SDS011;11357;49.990;7.370;2022-11-24T06:11:53;539.43;;;493.53;;
22378;SDS011;11357;49.990;7.370;2022-11-24T06:14:19;554.13;;;506.83;;
22378;SDS011;11357;49.990;7.370;2022-11-24T06:16:45;197.60;;;181.90;;
22378;SDS011;11357;49.990;7.370;2022-11-24T06:19:11;616.93;;;563.23;;
22378;SDS011;11357;49.990;7.370;2022-11-24T06:21:36;465.07;;;426.30;;
22378;SDS011;11357;49.990;7.370;2022-11-24T06:24:02;592.03;;;544.10;;
22378;SDS011;11357;49.990;7.370;2022-11-24T06:26:28;554.80;;;508.80;;
22378;SDS011;11357;49.990;7.370;2022-11-24T06:28:54;566.03;;;519.23;;
22378;SDS011;11357;49.990;7.370;2022-11-24T06:31:20;647.20;;;590.67;;
22378;SDS011;11357;49.990;7.370;2022-11-24T06:33:45;592.47;;;537.43;;
22378;SDS011;11357;49.990;7.370;2022-11-24T06:36:12;509.33;;;471.37;;
22378;SDS011;11357;49.990;7.370;2022-11-24T06:38:38;591.10;;;540.33;;
22378;SDS011;11357;49.990;7.370;2022-11-24T06:41:05;496.73;;;456.43;;
22378;SDS011;11357;49.990;7.370;2022-11-24T06:43:32;593.03;;;544.33;;
22378;SDS011;11357;49.990;7.370;2022-11-24T06:45:59;165.23;;;152.47;;
22378;SDS011;11357;49.990;7.370;2022-11-24T06:48:25;426.87;;;391.43;;
22378;SDS011;11357;49.990;7.370;2022-11-24T06:50:52;577.53;;;531.20;;
22378;SDS011;11357;49.990;7.370;2022-11-24T06:53:18;434.60;;;399.83;;
22378;SDS011;11357;49.990;7.370;2022-11-24T06:55:44;397.90;;;366.40;;
22378;SDS011;11357;49.990;7.370;2022-11-24T06:58:11;450.10;;;413.20;;
22378;SDS011;11357;49.990;7.370;2022-11-24T07:00:37;362.30;;;333.43;;
22378;SDS011;11357;49.990;7.370;2022-11-24T07:03:03;579.20;;;528.30;;
22378;SDS011;11357;49.990;7.370;2022-11-24T07:05:29;490.97;;;451.63;;
22378;SDS011;11357;49.990;7.370;2022-11-24T07:07:54;484.30;;;446.30;;
22378;SDS011;11357;49.990;7.370;2022-11-24T07:10:22;486.60;;;448.73;;
22378;SDS011;11357;49.990;7.370;2022-11-24T07:12:48;427.50;;;391.60;;
22378;SDS011;11357;49.990;7.370;2022-11-24T07:15:13;414.40;;;383.50;;
22378;SDS011;11357;49.990;7.370;2022-11-24T07:17:39;519.93;;;478.53;;
22378;SDS011;11357;49.990;7.370;2022-11-24T07:20:06;433.87;;;397.13;;
22378;SDS011;11357;49.990;7.370;2022-11-24T07:22:33;404.53;;;373.13;;
22378;SDS011;11357;49.990;7.370;2022-11-24T07:24:59;388.50;;;357.77;;
22378;SDS011;11357;49.990;7.370;2022-11-24T07:27:27;622.87;;;566.90;;
22378;SDS011;11357;49.990;7.370;2022-11-24T07:29:54;419.73;;;385.53;;
22378;SDS011;11357;49.990;7.370;2022-11-24T07:32:19;428.00;;;396.40;;
22378;SDS011;11357;49.990;7.370;2022-11-24T07:34:45;414.50;;;381.50;;
22378;SDS011;11357;49.990;7.370;2022-11-24T07:37:10;325.33;;;294.27;;
22378;SDS011;11357;49.990;7.370;2022-11-24T07:39:36;579.80;;;532.70;;
22378;SDS011;11357;49.990;7.370;2022-11-24T07:42:02;610.70;;;556.90;;
22378;SDS011;11357;49.990;7.370;2022-11-24T07:44:29;502.57;;;461.23;;
22378;SDS011;11357;49.990;7.370;2022-11-24T07:46:55;357.53;;;330.03;;
22378;SDS011;11357;49.990;7.370;2022-11-24T07:49:21;461.20;;;424.53;;
22378;SDS011;11357;49.990;7.370;2022-11-24T07:51:46;189.67;;;175.53;;
22378;SDS011;11357;49.990;7.370;2022-11-24T07:54:12;541.13;;;495.03;;
22378;SDS011;11357;49.990;7.370;2022-11-24T07:56:38;539.23;;;495.73;;
22378;SDS011;11357;49.990;7.370;2022-11-24T07:59:03;388.33;;;358.40;;
22378;SDS011;11357;49.990;7.370;2022-11-24T08:01:29;275.43;;;254.43;;
22378;SDS011;11357;49.990;7.370;2022-11-24T08:03:55;435.10;;;400.23;;
22378;SDS011;11357;49.990;7.370;2022-11-24T08:06:21;492.27;;;452.13;;
22378;SDS011;11357;49.990;7.370;2022-11-24T08:08:46;387.63;;;358.70;;
22378;SDS011;11357;49.990;7.370;2022-11-24T08:11:13;266.27;;;244.97;;
22378;SDS011;11357;49.990;7.370;2022-11-24T08:13:41;379.30;;;349.53;;
22378;SDS011;11357;49.990;7.370;2022-11-24T08:16:08;403.37;;;372.43;;
22378;SDS011;11357;49.990;7.370;2022-11-24T08:18:35;445.37;;;412.57;;
22378;SDS011;11357;49.990;7.370;2022-11-24T08:21:02;439.10;;;404.73;;
22378;SDS011;11357;49.990;7.370;2022-11-24T08:23:28;157.67;;;132.33;;
22378;SDS011;11357;49.990;7.370;2022-11-24T08:25:55;508.90;;;467.87;;
22378;SDS011;11357;49.990;7.370;2022-11-24T08:28:21;268.37;;;246.00;;
22378;SDS011;11357;49.990;7.370;2022-11-24T08:30:48;254.33;;;234.70;;
22378;SDS011;11357;49.990;7.370;2022-11-24T08:33:13;404.37;;;376.13;;
22378;SDS011;11357;49.990;7.370;2022-11-24T08:35:39;319.70;;;298.07;;
22378;SDS011;11357;49.990;7.370;2022-11-24T08:38:05;237.07;;;221.43;;
22378;SDS011;11357;49.990;7.370;2022-11-24T08:40:31;351.37;;;325.67;;
22378;SDS011;11357;49.990;7.370;2022-11-24T08:43:00;244.43;;;228.03;;
22378;SDS011;11357;49.990;7.370;2022-11-24T08:45:26;416.83;;;386.73;;
22378;SDS011;11357;49.990;7.370;2022-11-24T08:47:53;307.93;;;286.60;;
22378;SDS011;11357;49.990;7.370;2022-11-24T08:50:20;345.83;;;320.70;;
22378;SDS011;11357;49.990;7.370;2022-11-24T08:52:47;269.43;;;251.30;;
22378;SDS011;11357;49.990;7.370;2022-11-24T08:55:13;173.80;;;162.93;;
22378;SDS011;11357;49.990;7.370;2022-11-24T08:57:38;184.20;;;172.07;;
22378;SDS011;11357;49.990;7.370;2022-11-24T09:00:05;212.07;;;197.57;;
22378;SDS011;11357;49.990;7.370;2022-11-24T09:02:31;217.90;;;203.33;;
22378;SDS011;11357;49.990;7.370;2022-11-24T09:04:57;296.30;;;277.00;;
22378;SDS011;11357;49.990;7.370;2022-11-24T09:07:22;120.13;;;112.57;;
22378;SDS011;11357;49.990;7.370;2022-11-24T09:09:48;28.23;;;25.80;;
22378;SDS011;11357;49.990;7.370;2022-11-24T09:12:14;213.33;;;199.40;;
22378;SDS011;11357;49.990;7.370;2022-11-24T09:14:39;289.67;;;270.30;;
22378;SDS011;11357;49.990;7.370;2022-11-24T09:17:05;110.60;;;102.23;;
22378;SDS011;11357;49.990;7.370;2022-11-24T09:19:31;305.67;;;284.57;;
22378;SDS011;11357;49.990;7.370;2022-11-24T09:21:56;123.53;;;115.47;;
22378;SDS011;11357;49.990;7.370;2022-11-24T09:24:22;143.70;;;134.57;;
22378;SDS011;11357;49.990;7.370;2022-11-24T09:26:49;329.80;;;307.27;;
22378;SDS011;11357;49.990;7.370;2022-11-24T09:29:14;269.23;;;250.30;;
22378;SDS011;11357;49.990;7.370;2022-11-24T09:31:41;119.83;;;111.77;;
22378;SDS011;11357;49.990;7.370;2022-11-24T09:34:07;176.30;;;164.87;;
22378;SDS011;11357;49.990;7.370;2022-11-24T09:36:36;56.40;;;52.33;;
22378;SDS011;11357;49.990;7.370;2022-11-24T09:39:02;62.43;;;57.70;;
22378;SDS011;11357;49.990;7.370;2022-11-24T09:49:43;21.57;;;19.33;;
22378;SDS011;11357;49.990;7.370;2022-11-24T09:52:12;60.17;;;55.60;;
22378;SDS011;11357;49.990;7.370;2022-11-24T09:54:48;40.40;;;37.43;;
22378;SDS011;11357;49.990;7.370;2022-11-24T09:57:17;154.73;;;143.83;;
22378;SDS011;11357;49.990;7.370;2022-11-24T09:59:45;61.40;;;57.10;;
22378;SDS011;11357;49.990;7.370;2022-11-24T10:02:11;124.27;;;116.90;;
22378;SDS011;11357;49.990;7.370;2022-11-24T10:04:38;57.90;;;53.73;;
22378;SDS011;11357;49.990;7.370;2022-11-24T10:20:27;13.80;;;4.83;;
22378;SDS011;11357;49.990;7.370;2022-11-24T10:26:02;43.63;;;40.07;;
22378;SDS011;11357;49.990;7.370;2022-11-24T10:28:40;16.00;;;9.90;;
22378;SDS011;11357;49.990;7.370;2022-11-24T10:31:16;25.47;;;22.50;;
22378;SDS011;11357;49.990;7.370;2022-11-24T10:33:57;38.80;;;35.27;;
22378;SDS011;11357;49.990;7.370;2022-11-24T10:39:33;61.97;;;57.97;;
22378;SDS011;11357;49.990;7.370;2022-11-24T10:42:10;99.13;;;92.90;;
22378;SDS011;11357;49.990;7.370;2022-11-24T10:44:42;107.47;;;100.73;;
22378;SDS011;11357;49.990;7.370;2022-11-24T10:47:18;89.60;;;83.87;;
22378;SDS011;11357;49.990;7.370;2022-11-24T10:49:57;60.03;;;55.03;;
22378;SDS011;11357;49.990;7.370;2022-11-24T10:52:27;70.87;;;66.43;;
22378;SDS011;11357;49.990;7.370;2022-11-24T10:54:58;56.70;;;52.70;;
22378;SDS011;11357;49.990;7.370;2022-11-24T10:57:31;12.87;;;6.07;;
22378;SDS011;11357;49.990;7.370;2022-11-24T10:59:59;19.27;;;7.87;;
22378;SDS011;11357;49.990;7.370;2022-11-24T11:02:26;18.23;;;12.40;;
22378;SDS011;11357;49.990;7.370;2022-11-24T11:04:54;13.53;;;10.00;;
22378;SDS011;11357;49.990;7.370;2022-11-24T11:07:21;14.27;;;7.07;;
22378;SDS011;11357;49.990;7.370;2022-11-24T11:09:49;11.97;;;3.23;;
22378;SDS011;11357;49.990;7.370;2022-11-24T11:12:22;9.97;;;4.20;;
22378;SDS011;11357;49.990;7.370;2022-11-24T11:14:52;17.67;;;6.57;;
22378;SDS011;11357;49.990;7.370;2022-11-24T11:17:34;8.23;;;4.63;;
22378;SDS011;11357;49.990;7.370;2022-11-24T11:20:21;18.07;;;5.13;;
22378;SDS011;11357;49.990;7.370;2022-11-24T11:22:51;9.57;;;2.40;;
22378;SDS011;11357;49.990;7.370;2022-11-24T11:25:32;10.10;;;3.87;;
22378;SDS011;11357;49.990;7.370;2022-11-24T11:33:29;9.50;;;3.03;;
22378;SDS011;11357;49.990;7.370;2022-11-24T11:35:56;14.57;;;2.33;;
22378;SDS011;11357;49.990;7.370;2022-11-24T11:38:33;11.40;;;2.97;;
22378;SDS011;11357;49.990;7.370;2022-11-24T11:41:01;12.37;;;3.90;;
22378;SDS011;11357;49.990;7.370;2022-11-24T11:43:30;12.00;;;2.50;;
22378;SDS011;11357;49.990;7.370;2022-11-24T11:46:04;9.77;;;2.60;;
22378;SDS011;11357;49.990;7.370;2022-11-24T11:48:38;9.30;;;2.30;;
22378;SDS011;11357;49.990;7.370;2022-11-24T11:53:42;10.57;;;2.47;;
22378;SDS011;11357;49.990;7.370;2022-11-24T11:56:36;11.10;;;2.00;;
22378;SDS011;11357;49.990;7.370;2022-11-24T12:02:17;10.23;;;2.40;;
22378;SDS011;11357;49.990;7.370;2022-11-24T12:04:52;11.63;;;4.23;;
22378;SDS011;11357;49.990;7.370;2022-11-24T12:21:17;9.83;;;6.17;;
22378;SDS011;11357;49.990;7.370;2022-11-24T12:30:11;12.07;;;3.37;;
22378;SDS011;11357;49.990;7.370;2022-11-24T12:35:43;12.10;;;2.40;;
22378;SDS011;11357;49.990;7.370;2022-11-24T12:38:19;19.57;;;3.10;;
22378;SDS011;11357;49.990;7.370;2022-11-24T12:41:08;11.73;;;2.87;;
22378;SDS011;11357;49.990;7.370;2022-11-24T12:43:53;14.50;;;2.53;;
22378;SDS011;11357;49.990;7.370;2022-11-24T12:46:35;9.90;;;2.13;;
22378;SDS011;11357;49.990;7.370;2022-11-24T12:49:26;11.93;;;3.10;;
22378;SDS011;11357;49.990;7.370;2022-11-24T12:52:24;16.23;;;4.20;;
22378;SDS011;11357;49.990;7.370;2022-11-24T12:54:54;10.93;;;3.30;;
22378;SDS011;11357;49.990;7.370;2022-11-24T12:57:35;11.03;;;3.47;;
22378;SDS011;11357;49.990;7.370;2022-11-24T13:03:02;13.50;;;2.53;;
22378;SDS011;11357;49.990;7.370;2022-11-24T13:08:07;16.87;;;4.67;;
22378;SDS011;11357;49.990;7.370;2022-11-24T13:10:34;16.37;;;3.43;;
22378;SDS011;11357;49.990;7.370;2022-11-24T13:13:04;10.20;;;2.03;;
22378;SDS011;11357;49.990;7.370;2022-11-24T13:15:32;14.97;;;2.83;;
22378;SDS011;11357;49.990;7.370;2022-11-24T13:39:49;13.33;;;4.27;;
22378;SDS011;11357;49.990;7.370;2022-11-24T13:42:22;12.53;;;5.90;;
22378;SDS011;11357;49.990;7.370;2022-11-24T13:49:57;13.00;;;3.10;;
22378;SDS011;11357;49.990;7.370;2022-11-24T13:57:55;14.23;;;3.50;;
22378;SDS011;11357;49.990;7.370;2022-11-24T14:08:58;14.17;;;5.13;;
22378;SDS011;11357;49.990;7.370;2022-11-24T14:11:25;10.77;;;2.43;;
22378;SDS011;11357;49.990;7.370;2022-11-24T14:13:52;16.37;;;3.73;;
22378;SDS011;11357;49.990;7.370;2022-11-24T14:16:19;12.70;;;2.87;;
22378;SDS011;11357;49.990;7.370;2022-11-24T14:18:46;11.13;;;2.47;;
22378;SDS011;11357;49.990;7.370;2022-11-24T14:21:35;10.07;;;2.70;;
22378;SDS011;11357;49.990;7.370;2022-11-24T14:24:11;15.60;;;2.80;;
22378;SDS011;11357;49.990;7.370;2022-11-24T14:26:45;16.67;;;3.77;;
22378;SDS011;11357;49.990;7.370;2022-11-24T14:29:13;10.37;;;2.97;;
22378;SDS011;11357;49.990;7.370;2022-11-24T14:31:40;11.27;;;2.83;;
22378;SDS011;11357;49.990;7.370;2022-11-24T14:36:39;14.03;;;3.30;;
22378;SDS011;11357;49.990;7.370;2022-11-24T14:39:05;14.50;;;3.63;;
22378;SDS011;11357;49.990;7.370;2022-11-24T14:41:31;17.67;;;3.67;;
22378;SDS011;11357;49.990;7.370;2022-11-24T14:46:44;14.50;;;3.80;;
22378;SDS011;11357;49.990;7.370;2022-11-24T14:49:18;23.50;;;20.17;;
22378;SDS011;11357;49.990;7.370;2022-11-24T14:51:46;15.20;;;2.90;;
22378;SDS011;11357;49.990;7.370;2022-11-24T14:54:17;13.20;;;3.87;;
22378;SDS011;11357;49.990;7.370;2022-11-24T14:56:54;8.97;;;5.93;;
22378;SDS011;11357;49.990;7.370;2022-11-24T14:59:29;13.43;;;6.40;;
22378;SDS011;11357;49.990;7.370;2022-11-24T15:01:56;21.17;;;11.93;;
22378;SDS011;11357;49.990;7.370;2022-11-24T15:04:24;24.27;;;17.30;;
22378;SDS011;11357;49.990;7.370;2022-11-24T15:07:29;31.13;;;14.67;;
22378;SDS011;11357;49.990;7.370;2022-11-24T15:17:46;21.20;;;18.30;;
22378;SDS011;11357;49.990;7.370;2022-11-24T15:22:51;48.50;;;44.43;;
22378;SDS011;11357;49.990;7.370;2022-11-24T15:25:45;80.20;;;38.07;;
22378;SDS011;11357;49.990;7.370;2022-11-24T15:28:11;66.97;;;44.97;;
22378;SDS011;11357;49.990;7.370;2022-11-24T15:30:36;50.03;;;45.23;;
22378;SDS011;11357;49.990;7.370;2022-11-24T15:33:02;100.77;;;92.83;;
22378;SDS011;11357;49.990;7.370;2022-11-24T15:35:37;50.70;;;46.97;;
22378;SDS011;11357;49.990;7.370;2022-11-24T15:38:03;75.73;;;71.03;;
22378;SDS011;11357;49.990;7.370;2022-11-24T15:40:28;90.53;;;84.10;;
22378;SDS011;11357;49.990;7.370;2022-11-24T15:42:55;69.40;;;64.33;;
22378;SDS011;11357;49.990;7.370;2022-11-24T15:45:21;73.07;;;67.00;;
22378;SDS011;11357;49.990;7.370;2022-11-24T15:47:49;75.53;;;69.87;;
22378;SDS011;11357;49.990;7.370;2022-11-24T15:50:15;69.20;;;63.93;;
22378;SDS011;11357;49.990;7.370;2022-11-24T15:52:41;112.93;;;105.60;;
22378;SDS011;11357;49.990;7.370;2022-11-24T15:55:17;72.13;;;66.87;;
22378;SDS011;11357;49.990;7.370;2022-11-24T15:57:44;97.00;;;85.87;;
22378;SDS011;11357;49.990;7.370;2022-11-24T16:00:17;124.60;;;112.80;;
22378;SDS011;11357;49.990;7.370;2022-11-24T16:02:44;141.67;;;129.57;;
22378;SDS011;11357;49.990;7.370;2022-11-24T16:05:10;112.60;;;104.53;;
22378;SDS011;11357;49.990;7.370;2022-11-24T16:07:37;74.57;;;69.03;;
22378;SDS011;11357;49.990;7.370;2022-11-24T16:10:03;72.30;;;67.03;;
22378;SDS011;11357;49.990;7.370;2022-11-24T16:12:30;97.10;;;90.83;;
22378;SDS011;11357;49.990;7.370;2022-11-24T16:14:56;195.40;;;182.63;;
22378;SDS011;11357;49.990;7.370;2022-11-24T16:17:21;128.03;;;120.00;;
22378;SDS011;11357;49.990;7.370;2022-11-24T16:19:47;164.43;;;153.53;;
22378;SDS011;11357;49.990;7.370;2022-11-24T16:22:12;138.63;;;129.53;;
22378;SDS011;11357;49.990;7.370;2022-11-24T16:24:38;134.50;;;125.60;;
22378;SDS011;11357;49.990;7.370;2022-11-24T16:27:04;64.13;;;59.13;;
22378;SDS011;11357;49.990;7.370;2022-11-24T16:29:29;96.33;;;90.03;;
22378;SDS011;11357;49.990;7.370;2022-11-24T16:31:55;56.67;;;52.10;;